sensor_id;sensor_type;location;lat;lon;timestamp;P1;durP1;ratioP1;P2;durP2;ratioP2
22270;SDS011;11304;53.520;10.104;2023-09-30T00:01:09;16.17;;;4.22;;
22270;SDS011;11304;53.520;10.104;2023-09-30T00:03:35;19.08;;;4.50;;
22270;SDS011;11304;53.520;10.104;2023-09-30T00:06:01;14.38;;;3.95;;
22270;SDS011;11304;53.520;10.104;2023-09-30T00:08:28;13.30;;;3.75;;
22270;SDS011;11304;53.520;10.104;2023-09-30T00:10:54;15.60;;;3.92;;
22270;SDS011;11304;53.520;10.104;2023-09-30T00:13:20;17.35;;;4.20;;
22270;SDS011;11304;53.520;10.104;2023-09-30T00:15:46;19.70;;;4.82;;
22270;SDS011;11304;53.520;10.104;2023-09-30T00:18:12;15.73;;;4.40;;
22270;SDS011;11304;53.520;10.104;2023-09-30T00:20:38;23.50;;;4.30;;
22270;SDS011;11304;53.520;10.104;2023-09-30T00:23:04;12.23;;;3.33;;
22270;SDS011;11304;53.520;10.104;2023-09-30T00:25:31;16.73;;;4.20;;
22270;SDS011;11304;53.520;10.104;2023-09-30T00:30:25;17.23;;;4.45;;
22270;SDS011;11304;53.520;10.104;2023-09-30T00:32:51;16.50;;;4.32;;
22270;SDS011;11304;53.520;10.104;2023-09-30T00:35:17;13.75;;;4.10;;
22270;SDS011;11304;53.520;10.104;2023-09-30T00:37:42;17.23;;;4.72;;
22270;SDS011;11304;53.520;10.104;2023-09-30T00:40:08;16.20;;;4.53;;
22270;SDS011;11304;53.520;10.104;2023-09-30T00:42:38;12.90;;;3.72;;
22270;SDS011;11304;53.520;10.104;2023-09-30T00:45:05;17.95;;;4.15;;
22270;SDS011;11304;53.520;10.104;2023-09-30T00:47:31;17.98;;;4.78;;
22270;SDS011;11304;53.520;10.104;2023-09-30T00:49:59;19.27;;;4.32;;
22270;SDS011;11304;53.520;10.104;2023-09-30T00:52:25;20.20;;;4.60;;
22270;SDS011;11304;53.520;10.104;2023-09-30T00:54:50;15.68;;;4.47;;
22270;SDS011;11304;53.520;10.104;2023-09-30T00:57:17;15.57;;;4.43;;
22270;SDS011;11304;53.520;10.104;2023-09-30T00:59:45;20.40;;;4.22;;
22270;SDS011;11304;53.520;10.104;2023-09-30T01:02:12;16.73;;;4.35;;
22270;SDS011;11304;53.520;10.104;2023-09-30T01:04:37;14.57;;;4.30;;
22270;SDS011;11304;53.520;10.104;2023-09-30T01:07:03;17.70;;;4.38;;
22270;SDS011;11304;53.520;10.104;2023-09-30T01:09:30;18.33;;;3.90;;
22270;SDS011;11304;53.520;10.104;2023-09-30T01:11:56;16.88;;;4.13;;
22270;SDS011;11304;53.520;10.104;2023-09-30T01:16:51;21.45;;;4.28;;
22270;SDS011;11304;53.520;10.104;2023-09-30T01:19:16;14.38;;;3.53;;
22270;SDS011;11304;53.520;10.104;2023-09-30T01:21:42;16.88;;;4.05;;
22270;SDS011;11304;53.520;10.104;2023-09-30T01:24:13;14.27;;;3.88;;
22270;SDS011;11304;53.520;10.104;2023-09-30T01:26:40;15.95;;;3.90;;
22270;SDS011;11304;53.520;10.104;2023-09-30T01:29:07;14.20;;;4.13;;
22270;SDS011;11304;53.520;10.104;2023-09-30T01:31:36;16.17;;;4.18;;
22270;SDS011;11304;53.520;10.104;2023-09-30T01:34:03;14.07;;;3.90;;
22270;SDS011;11304;53.520;10.104;2023-09-30T01:36:29;16.35;;;4.53;;
22270;SDS011;11304;53.520;10.104;2023-09-30T01:38:55;17.17;;;4.60;;
22270;SDS011;11304;53.520;10.104;2023-09-30T01:41:20;23.48;;;4.50;;
22270;SDS011;11304;53.520;10.104;2023-09-30T01:43:46;16.63;;;4.25;;
22270;SDS011;11304;53.520;10.104;2023-09-30T01:46:12;16.25;;;4.30;;
22270;SDS011;11304;53.520;10.104;2023-09-30T01:48:38;15.18;;;4.47;;
22270;SDS011;11304;53.520;10.104;2023-09-30T01:51:03;21.63;;;4.55;;
22270;SDS011;11304;53.520;10.104;2023-09-30T01:53:29;17.70;;;4.32;;
22270;SDS011;11304;53.520;10.104;2023-09-30T01:55:55;19.63;;;3.78;;
22270;SDS011;11304;53.520;10.104;2023-09-30T01:58:20;17.20;;;3.95;;
22270;SDS011;11304;53.520;10.104;2023-09-30T02:00:46;16.15;;;3.80;;
22270;SDS011;11304;53.520;10.104;2023-09-30T02:03:12;18.83;;;4.30;;
22270;SDS011;11304;53.520;10.104;2023-09-30T02:05:38;15.60;;;3.88;;
22270;SDS011;11304;53.520;10.104;2023-09-30T02:08:04;16.10;;;3.85;;
22270;SDS011;11304;53.520;10.104;2023-09-30T02:10:31;21.48;;;4.47;;
22270;SDS011;11304;53.520;10.104;2023-09-30T02:12:58;16.42;;;3.78;;
22270;SDS011;11304;53.520;10.104;2023-09-30T02:15:25;11.52;;;3.70;;
22270;SDS011;11304;53.520;10.104;2023-09-30T02:17:51;17.48;;;3.95;;
22270;SDS011;11304;53.520;10.104;2023-09-30T02:20:17;14.13;;;3.70;;
22270;SDS011;11304;53.520;10.104;2023-09-30T02:22:47;15.70;;;3.85;;
22270;SDS011;11304;53.520;10.104;2023-09-30T02:25:13;15.48;;;3.97;;
22270;SDS011;11304;53.520;10.104;2023-09-30T02:27:40;15.05;;;3.78;;
22270;SDS011;11304;53.520;10.104;2023-09-30T02:30:06;15.20;;;4.10;;
22270;SDS011;11304;53.520;10.104;2023-09-30T02:32:34;21.77;;;4.47;;
22270;SDS011;11304;53.520;10.104;2023-09-30T02:34:59;18.25;;;3.95;;
22270;SDS011;11304;53.520;10.104;2023-09-30T02:37:25;16.50;;;4.38;;
22270;SDS011;11304;53.520;10.104;2023-09-30T02:39:51;16.65;;;4.30;;
22270;SDS011;11304;53.520;10.104;2023-09-30T02:42:16;16.08;;;3.80;;
22270;SDS011;11304;53.520;10.104;2023-09-30T02:44:42;27.45;;;4.90;;
22270;SDS011;11304;53.520;10.104;2023-09-30T02:47:08;15.30;;;4.25;;
22270;SDS011;11304;53.520;10.104;2023-09-30T02:49:34;21.52;;;4.95;;
22270;SDS011;11304;53.520;10.104;2023-09-30T02:52:00;13.40;;;3.55;;
22270;SDS011;11304;53.520;10.104;2023-09-30T02:54:26;18.73;;;4.05;;
22270;SDS011;11304;53.520;10.104;2023-09-30T02:56:52;15.13;;;4.25;;
22270;SDS011;11304;53.520;10.104;2023-09-30T02:59:19;16.38;;;4.53;;
22270;SDS011;11304;53.520;10.104;2023-09-30T03:01:47;19.70;;;4.47;;
22270;SDS011;11304;53.520;10.104;2023-09-30T03:04:13;16.20;;;3.65;;
22270;SDS011;11304;53.520;10.104;2023-09-30T03:06:39;23.17;;;4.32;;
22270;SDS011;11304;53.520;10.104;2023-09-30T03:09:04;16.25;;;4.22;;
22270;SDS011;11304;53.520;10.104;2023-09-30T03:11:31;18.02;;;4.88;;
22270;SDS011;11304;53.520;10.104;2023-09-30T03:13:58;17.83;;;4.07;;
22270;SDS011;11304;53.520;10.104;2023-09-30T03:16:24;18.88;;;4.10;;
22270;SDS011;11304;53.520;10.104;2023-09-30T03:18:50;19.10;;;5.15;;
22270;SDS011;11304;53.520;10.104;2023-09-30T03:21:16;20.70;;;5.15;;
22270;SDS011;11304;53.520;10.104;2023-09-30T03:23:42;16.30;;;4.30;;
22270;SDS011;11304;53.520;10.104;2023-09-30T03:26:08;23.02;;;4.93;;
22270;SDS011;11304;53.520;10.104;2023-09-30T03:28:37;17.38;;;5.03;;
22270;SDS011;11304;53.520;10.104;2023-09-30T03:33:30;14.23;;;4.25;;
22270;SDS011;11304;53.520;10.104;2023-09-30T03:35:57;17.92;;;4.45;;
22270;SDS011;11304;53.520;10.104;2023-09-30T03:38:23;19.45;;;4.72;;
22270;SDS011;11304;53.520;10.104;2023-09-30T03:40:50;17.85;;;4.45;;
22270;SDS011;11304;53.520;10.104;2023-09-30T03:43:18;19.10;;;4.43;;
22270;SDS011;11304;53.520;10.104;2023-09-30T03:45:44;23.50;;;4.88;;
22270;SDS011;11304;53.520;10.104;2023-09-30T03:48:10;18.48;;;4.55;;
22270;SDS011;11304;53.520;10.104;2023-09-30T03:50:36;18.50;;;4.38;;
22270;SDS011;11304;53.520;10.104;2023-09-30T03:53:03;16.15;;;4.65;;
22270;SDS011;11304;53.520;10.104;2023-09-30T03:55:30;19.63;;;5.07;;
22270;SDS011;11304;53.520;10.104;2023-09-30T03:57:57;19.90;;;4.50;;
22270;SDS011;11304;53.520;10.104;2023-09-30T04:00:23;20.38;;;4.18;;
22270;SDS011;11304;53.520;10.104;2023-09-30T04:02:49;19.55;;;4.65;;
22270;SDS011;11304;53.520;10.104;2023-09-30T04:05:20;22.67;;;4.78;;
22270;SDS011;11304;53.520;10.104;2023-09-30T04:07:51;14.68;;;3.83;;
22270;SDS011;11304;53.520;10.104;2023-09-30T04:10:17;14.88;;;4.28;;
22270;SDS011;11304;53.520;10.104;2023-09-30T04:12:42;14.95;;;3.72;;
22270;SDS011;11304;53.520;10.104;2023-09-30T04:15:08;13.93;;;3.88;;
22270;SDS011;11304;53.520;10.104;2023-09-30T04:17:37;18.48;;;5.20;;
22270;SDS011;11304;53.520;10.104;2023-09-30T04:20:05;17.98;;;4.53;;
22270;SDS011;11304;53.520;10.104;2023-09-30T04:22:34;14.43;;;4.45;;
22270;SDS011;11304;53.520;10.104;2023-09-30T04:25:00;18.58;;;4.43;;
22270;SDS011;11304;53.520;10.104;2023-09-30T04:27:26;16.63;;;4.70;;
22270;SDS011;11304;53.520;10.104;2023-09-30T04:29:52;22.75;;;5.45;;
22270;SDS011;11304;53.520;10.104;2023-09-30T04:32:18;27.92;;;5.82;;
22270;SDS011;11304;53.520;10.104;2023-09-30T04:34:44;23.33;;;5.78;;
22270;SDS011;11304;53.520;10.104;2023-09-30T04:37:11;22.63;;;5.80;;
22270;SDS011;11304;53.520;10.104;2023-09-30T04:39:40;19.38;;;5.15;;
22270;SDS011;11304;53.520;10.104;2023-09-30T04:42:06;17.10;;;4.75;;
22270;SDS011;11304;53.520;10.104;2023-09-30T04:44:36;20.20;;;4.63;;
22270;SDS011;11304;53.520;10.104;2023-09-30T04:47:03;21.67;;;4.65;;
22270;SDS011;11304;53.520;10.104;2023-09-30T04:49:29;16.15;;;4.97;;
22270;SDS011;11304;53.520;10.104;2023-09-30T04:51:55;20.33;;;5.40;;
22270;SDS011;11304;53.520;10.104;2023-09-30T04:54:21;19.50;;;4.43;;
22270;SDS011;11304;53.520;10.104;2023-09-30T04:56:47;18.48;;;4.70;;
22270;SDS011;11304;53.520;10.104;2023-09-30T04:59:13;19.27;;;4.78;;
22270;SDS011;11304;53.520;10.104;2023-09-30T05:01:39;21.30;;;5.13;;
22270;SDS011;11304;53.520;10.104;2023-09-30T05:04:04;16.38;;;4.65;;
22270;SDS011;11304;53.520;10.104;2023-09-30T05:06:30;20.13;;;4.68;;
22270;SDS011;11304;53.520;10.104;2023-09-30T05:08:57;21.83;;;4.88;;
22270;SDS011;11304;53.520;10.104;2023-09-30T05:11:24;17.73;;;4.95;;
22270;SDS011;11304;53.520;10.104;2023-09-30T05:13:49;20.00;;;4.75;;
22270;SDS011;11304;53.520;10.104;2023-09-30T05:16:16;13.73;;;4.03;;
22270;SDS011;11304;53.520;10.104;2023-09-30T05:18:43;17.38;;;4.85;;
22270;SDS011;11304;53.520;10.104;2023-09-30T05:21:08;14.52;;;4.25;;
22270;SDS011;11304;53.520;10.104;2023-09-30T05:23:35;20.85;;;4.95;;
22270;SDS011;11304;53.520;10.104;2023-09-30T05:26:02;20.40;;;5.22;;
22270;SDS011;11304;53.520;10.104;2023-09-30T05:28:27;16.10;;;4.40;;
22270;SDS011;11304;53.520;10.104;2023-09-30T05:30:53;19.55;;;4.32;;
22270;SDS011;11304;53.520;10.104;2023-09-30T05:33:19;19.02;;;4.55;;
22270;SDS011;11304;53.520;10.104;2023-09-30T05:35:45;15.57;;;4.15;;
22270;SDS011;11304;53.520;10.104;2023-09-30T05:38:11;17.83;;;4.13;;
22270;SDS011;11304;53.520;10.104;2023-09-30T05:40:37;16.92;;;4.40;;
22270;SDS011;11304;53.520;10.104;2023-09-30T05:43:03;18.40;;;5.05;;
22270;SDS011;11304;53.520;10.104;2023-09-30T05:45:31;21.63;;;4.43;;
22270;SDS011;11304;53.520;10.104;2023-09-30T05:48:03;20.20;;;4.68;;
22270;SDS011;11304;53.520;10.104;2023-09-30T05:50:32;17.10;;;4.47;;
22270;SDS011;11304;53.520;10.104;2023-09-30T05:53:01;13.88;;;4.15;;
22270;SDS011;11304;53.520;10.104;2023-09-30T05:55:27;19.35;;;4.97;;
22270;SDS011;11304;53.520;10.104;2023-09-30T05:57:54;19.70;;;5.15;;
22270;SDS011;11304;53.520;10.104;2023-09-30T06:00:20;14.70;;;4.47;;
22270;SDS011;11304;53.520;10.104;2023-09-30T06:02:48;16.80;;;4.63;;
22270;SDS011;11304;53.520;10.104;2023-09-30T06:05:14;14.73;;;4.35;;
22270;SDS011;11304;53.520;10.104;2023-09-30T06:07:51;19.45;;;4.80;;
22270;SDS011;11304;53.520;10.104;2023-09-30T06:10:19;16.70;;;4.32;;
22270;SDS011;11304;53.520;10.104;2023-09-30T06:12:47;18.63;;;4.38;;
22270;SDS011;11304;53.520;10.104;2023-09-30T06:15:14;15.13;;;4.13;;
22270;SDS011;11304;53.520;10.104;2023-09-30T06:17:41;17.20;;;4.72;;
22270;SDS011;11304;53.520;10.104;2023-09-30T06:20:07;23.38;;;5.20;;
22270;SDS011;11304;53.520;10.104;2023-09-30T06:22:41;20.90;;;5.07;;
22270;SDS011;11304;53.520;10.104;2023-09-30T06:25:08;16.15;;;4.68;;
22270;SDS011;11304;53.520;10.104;2023-09-30T06:27:34;18.35;;;4.70;;
22270;SDS011;11304;53.520;10.104;2023-09-30T06:30:00;17.27;;;4.60;;
22270;SDS011;11304;53.520;10.104;2023-09-30T06:32:25;16.88;;;4.70;;
22270;SDS011;11304;53.520;10.104;2023-09-30T06:34:51;13.57;;;4.05;;
22270;SDS011;11304;53.520;10.104;2023-09-30T06:37:18;15.10;;;4.63;;
22270;SDS011;11304;53.520;10.104;2023-09-30T06:39:43;18.63;;;4.45;;
22270;SDS011;11304;53.520;10.104;2023-09-30T06:42:09;17.52;;;4.38;;
22270;SDS011;11304;53.520;10.104;2023-09-30T06:44:35;13.20;;;3.95;;
22270;SDS011;11304;53.520;10.104;2023-09-30T06:47:00;16.23;;;4.50;;
22270;SDS011;11304;53.520;10.104;2023-09-30T06:49:26;14.00;;;4.68;;
22270;SDS011;11304;53.520;10.104;2023-09-30T06:51:52;15.55;;;3.70;;
22270;SDS011;11304;53.520;10.104;2023-09-30T06:54:17;15.82;;;4.88;;
22270;SDS011;11304;53.520;10.104;2023-09-30T06:56:43;14.20;;;4.68;;
22270;SDS011;11304;53.520;10.104;2023-09-30T06:59:09;15.75;;;4.53;;
22270;SDS011;11304;53.520;10.104;2023-09-30T07:01:35;20.70;;;4.68;;
22270;SDS011;11304;53.520;10.104;2023-09-30T07:04:00;15.65;;;4.00;;
22270;SDS011;11304;53.520;10.104;2023-09-30T07:06:26;17.75;;;4.30;;
22270;SDS011;11304;53.520;10.104;2023-09-30T07:08:52;16.17;;;4.07;;
22270;SDS011;11304;53.520;10.104;2023-09-30T07:11:30;17.30;;;4.10;;
22270;SDS011;11304;53.520;10.104;2023-09-30T07:13:59;18.08;;;3.88;;
22270;SDS011;11304;53.520;10.104;2023-09-30T07:16:25;16.92;;;4.43;;
22270;SDS011;11304;53.520;10.104;2023-09-30T07:18:51;18.17;;;4.38;;
22270;SDS011;11304;53.520;10.104;2023-09-30T07:21:16;12.55;;;4.68;;
22270;SDS011;11304;53.520;10.104;2023-09-30T07:23:42;15.55;;;4.35;;
22270;SDS011;11304;53.520;10.104;2023-09-30T07:26:08;14.80;;;4.10;;
22270;SDS011;11304;53.520;10.104;2023-09-30T07:28:34;16.15;;;4.15;;
22270;SDS011;11304;53.520;10.104;2023-09-30T07:30:59;15.65;;;3.78;;
22270;SDS011;11304;53.520;10.104;2023-09-30T07:33:25;16.42;;;4.47;;
22270;SDS011;11304;53.520;10.104;2023-09-30T07:35:51;11.45;;;4.15;;
22270;SDS011;11304;53.520;10.104;2023-09-30T07:38:17;14.13;;;3.75;;
22270;SDS011;11304;53.520;10.104;2023-09-30T07:40:42;11.38;;;3.70;;
22270;SDS011;11304;53.520;10.104;2023-09-30T07:43:08;14.40;;;3.50;;
22270;SDS011;11304;53.520;10.104;2023-09-30T07:45:35;12.05;;;3.50;;
22270;SDS011;11304;53.520;10.104;2023-09-30T07:48:01;20.30;;;4.00;;
22270;SDS011;11304;53.520;10.104;2023-09-30T07:50:29;20.85;;;4.65;;
22270;SDS011;11304;53.520;10.104;2023-09-30T07:52:55;18.15;;;4.35;;
22270;SDS011;11304;53.520;10.104;2023-09-30T07:55:21;16.67;;;3.95;;
22270;SDS011;11304;53.520;10.104;2023-09-30T07:57:47;17.50;;;3.88;;
22270;SDS011;11304;53.520;10.104;2023-09-30T08:00:13;16.13;;;4.38;;
22270;SDS011;11304;53.520;10.104;2023-09-30T08:02:42;18.60;;;4.03;;
22270;SDS011;11304;53.520;10.104;2023-09-30T08:05:09;12.55;;;4.00;;
22270;SDS011;11304;53.520;10.104;2023-09-30T08:07:35;16.75;;;4.05;;
22270;SDS011;11304;53.520;10.104;2023-09-30T08:10:02;14.52;;;3.50;;
22270;SDS011;11304;53.520;10.104;2023-09-30T08:14:55;13.52;;;3.53;;
22270;SDS011;11304;53.520;10.104;2023-09-30T08:17:21;13.65;;;3.40;;
22270;SDS011;11304;53.520;10.104;2023-09-30T08:19:47;14.85;;;3.45;;
22270;SDS011;11304;53.520;10.104;2023-09-30T08:22:15;15.93;;;3.63;;
22270;SDS011;11304;53.520;10.104;2023-09-30T08:24:41;13.63;;;3.47;;
22270;SDS011;11304;53.520;10.104;2023-09-30T08:27:06;16.40;;;3.60;;
22270;SDS011;11304;53.520;10.104;2023-09-30T08:29:33;14.43;;;3.53;;
22270;SDS011;11304;53.520;10.104;2023-09-30T08:32:02;15.00;;;3.22;;
22270;SDS011;11304;53.520;10.104;2023-09-30T08:34:28;15.68;;;3.42;;
22270;SDS011;11304;53.520;10.104;2023-09-30T08:36:54;12.45;;;3.25;;
22270;SDS011;11304;53.520;10.104;2023-09-30T08:39:20;14.90;;;3.38;;
22270;SDS011;11304;53.520;10.104;2023-09-30T08:41:46;15.40;;;3.78;;
22270;SDS011;11304;53.520;10.104;2023-09-30T08:44:12;14.27;;;3.55;;
22270;SDS011;11304;53.520;10.104;2023-09-30T08:46:38;16.40;;;3.75;;
22270;SDS011;11304;53.520;10.104;2023-09-30T08:49:05;16.92;;;4.13;;
22270;SDS011;11304;53.520;10.104;2023-09-30T08:51:32;17.17;;;3.80;;
22270;SDS011;11304;53.520;10.104;2023-09-30T08:53:58;16.13;;;3.65;;
22270;SDS011;11304;53.520;10.104;2023-09-30T08:56:27;12.68;;;3.13;;
22270;SDS011;11304;53.520;10.104;2023-09-30T08:59:00;12.15;;;3.50;;
22270;SDS011;11304;53.520;10.104;2023-09-30T09:01:27;9.88;;;2.80;;
22270;SDS011;11304;53.520;10.104;2023-09-30T09:03:53;14.48;;;3.13;;
22270;SDS011;11304;53.520;10.104;2023-09-30T09:06:20;11.60;;;3.17;;
22270;SDS011;11304;53.520;10.104;2023-09-30T09:08:46;13.70;;;3.45;;
22270;SDS011;11304;53.520;10.104;2023-09-30T09:11:14;14.10;;;3.20;;
22270;SDS011;11304;53.520;10.104;2023-09-30T09:16:14;13.68;;;3.38;;
22270;SDS011;11304;53.520;10.104;2023-09-30T09:18:42;12.95;;;3.10;;
22270;SDS011;11304;53.520;10.104;2023-09-30T09:21:12;13.77;;;3.63;;
22270;SDS011;11304;53.520;10.104;2023-09-30T09:23:42;13.05;;;3.10;;
22270;SDS011;11304;53.520;10.104;2023-09-30T09:26:26;11.38;;;3.38;;
22270;SDS011;11304;53.520;10.104;2023-09-30T09:29:03;14.35;;;3.42;;
22270;SDS011;11304;53.520;10.104;2023-09-30T09:31:33;10.70;;;2.55;;
22270;SDS011;11304;53.520;10.104;2023-09-30T09:34:04;17.35;;;3.08;;
22270;SDS011;11304;53.520;10.104;2023-09-30T09:39:06;12.82;;;2.97;;
22270;SDS011;11304;53.520;10.104;2023-09-30T09:41:32;10.35;;;2.70;;
22270;SDS011;11304;53.520;10.104;2023-09-30T09:43:59;13.13;;;2.95;;
22270;SDS011;11304;53.520;10.104;2023-09-30T09:46:25;13.77;;;2.97;;
22270;SDS011;11304;53.520;10.104;2023-09-30T09:48:53;13.73;;;3.20;;
22270;SDS011;11304;53.520;10.104;2023-09-30T09:51:20;18.25;;;3.40;;
22270;SDS011;11304;53.520;10.104;2023-09-30T09:53:46;15.15;;;3.42;;
22270;SDS011;11304;53.520;10.104;2023-09-30T09:56:15;15.40;;;2.95;;
22270;SDS011;11304;53.520;10.104;2023-09-30T09:58:41;17.48;;;2.95;;
22270;SDS011;11304;53.520;10.104;2023-09-30T10:01:09;16.95;;;2.95;;
22270;SDS011;11304;53.520;10.104;2023-09-30T10:03:35;16.45;;;3.25;;
22270;SDS011;11304;53.520;10.104;2023-09-30T10:06:03;13.75;;;2.88;;
22270;SDS011;11304;53.520;10.104;2023-09-30T10:08:39;12.23;;;3.15;;
22270;SDS011;11304;53.520;10.104;2023-09-30T10:11:07;12.43;;;2.50;;
22270;SDS011;11304;53.520;10.104;2023-09-30T10:13:50;8.10;;;2.35;;
22270;SDS011;11304;53.520;10.104;2023-09-30T10:19:11;14.85;;;3.10;;
22270;SDS011;11304;53.520;10.104;2023-09-30T10:22:19;9.52;;;2.67;;
22270;SDS011;11304;53.520;10.104;2023-09-30T10:24:45;11.10;;;2.47;;
22270;SDS011;11304;53.520;10.104;2023-09-30T10:40:48;9.57;;;2.17;;
22270;SDS011;11304;53.520;10.104;2023-09-30T10:43:31;14.18;;;2.90;;
22270;SDS011;11304;53.520;10.104;2023-09-30T10:48:52;10.98;;;2.92;;
22270;SDS011;11304;53.520;10.104;2023-09-30T10:51:18;10.98;;;2.28;;
22270;SDS011;11304;53.520;10.104;2023-09-30T10:53:51;9.18;;;2.50;;
22270;SDS011;11304;53.520;10.104;2023-09-30T10:56:21;16.58;;;3.13;;
22270;SDS011;11304;53.520;10.104;2023-09-30T10:58:49;10.75;;;2.78;;
22270;SDS011;11304;53.520;10.104;2023-09-30T11:01:21;13.27;;;2.60;;
22270;SDS011;11304;53.520;10.104;2023-09-30T11:03:48;9.05;;;2.22;;
22270;SDS011;11304;53.520;10.104;2023-09-30T11:06:19;15.95;;;3.00;;
22270;SDS011;11304;53.520;10.104;2023-09-30T11:08:53;15.52;;;2.95;;
22270;SDS011;11304;53.520;10.104;2023-09-30T11:11:37;15.38;;;2.78;;
22270;SDS011;11304;53.520;10.104;2023-09-30T11:17:02;11.10;;;2.28;;
22270;SDS011;11304;53.520;10.104;2023-09-30T11:19:34;12.05;;;2.97;;
22270;SDS011;11304;53.520;10.104;2023-09-30T11:22:02;10.77;;;2.45;;
22270;SDS011;11304;53.520;10.104;2023-09-30T11:24:28;15.57;;;2.60;;
22270;SDS011;11304;53.520;10.104;2023-09-30T11:26:54;10.30;;;2.65;;
22270;SDS011;11304;53.520;10.104;2023-09-30T11:29:20;12.75;;;2.58;;
22270;SDS011;11304;53.520;10.104;2023-09-30T11:31:47;12.55;;;2.30;;
22270;SDS011;11304;53.520;10.104;2023-09-30T11:34:17;17.85;;;2.63;;
22270;SDS011;11304;53.520;10.104;2023-09-30T11:36:47;8.73;;;1.80;;
22270;SDS011;11304;53.520;10.104;2023-09-30T11:39:23;11.85;;;2.65;;
22270;SDS011;11304;53.520;10.104;2023-09-30T11:41:53;13.77;;;2.38;;
22270;SDS011;11304;53.520;10.104;2023-09-30T11:44:23;11.20;;;2.28;;
22270;SDS011;11304;53.520;10.104;2023-09-30T11:46:57;9.27;;;2.45;;
22270;SDS011;11304;53.520;10.104;2023-09-30T11:52:09;10.60;;;2.53;;
22270;SDS011;11304;53.520;10.104;2023-09-30T11:54:37;9.95;;;2.08;;
22270;SDS011;11304;53.520;10.104;2023-09-30T11:57:08;15.82;;;2.60;;
22270;SDS011;11304;53.520;10.104;2023-09-30T11:59:39;11.17;;;2.47;;
22270;SDS011;11304;53.520;10.104;2023-09-30T12:02:06;10.65;;;2.08;;
22270;SDS011;11304;53.520;10.104;2023-09-30T12:04:35;9.52;;;2.45;;
22270;SDS011;11304;53.520;10.104;2023-09-30T12:07:02;10.57;;;2.92;;
22270;SDS011;11304;53.520;10.104;2023-09-30T12:09:27;9.85;;;2.33;;
22270;SDS011;11304;53.520;10.104;2023-09-30T12:11:55;6.47;;;1.90;;
22270;SDS011;11304;53.520;10.104;2023-09-30T12:14:22;8.23;;;2.47;;
22270;SDS011;11304;53.520;10.104;2023-09-30T12:16:49;9.70;;;2.60;;
22270;SDS011;11304;53.520;10.104;2023-09-30T12:19:18;12.98;;;2.35;;
22270;SDS011;11304;53.520;10.104;2023-09-30T12:24:13;16.80;;;2.65;;
22270;SDS011;11304;53.520;10.104;2023-09-30T12:26:48;8.70;;;1.95;;
22270;SDS011;11304;53.520;10.104;2023-09-30T12:29:15;8.82;;;2.08;;
22270;SDS011;11304;53.520;10.104;2023-09-30T12:31:49;10.48;;;2.33;;
22270;SDS011;11304;53.520;10.104;2023-09-30T12:34:15;15.18;;;2.55;;
22270;SDS011;11304;53.520;10.104;2023-09-30T12:36:42;7.32;;;1.95;;
22270;SDS011;11304;53.520;10.104;2023-09-30T12:39:08;9.35;;;1.80;;
22270;SDS011;11304;53.520;10.104;2023-09-30T12:41:38;11.57;;;2.10;;
22270;SDS011;11304;53.520;10.104;2023-09-30T12:44:05;7.95;;;2.08;;
22270;SDS011;11304;53.520;10.104;2023-09-30T12:46:35;7.90;;;2.03;;
22270;SDS011;11304;53.520;10.104;2023-09-30T12:49:05;8.35;;;2.17;;
22270;SDS011;11304;53.520;10.104;2023-09-30T12:51:34;11.50;;;2.40;;
22270;SDS011;11304;53.520;10.104;2023-09-30T12:54:00;8.85;;;1.88;;
22270;SDS011;11304;53.520;10.104;2023-09-30T12:56:26;8.77;;;2.00;;
22270;SDS011;11304;53.520;10.104;2023-09-30T12:58:54;12.13;;;2.28;;
22270;SDS011;11304;53.520;10.104;2023-09-30T13:01:20;9.32;;;1.92;;
22270;SDS011;11304;53.520;10.104;2023-09-30T13:03:47;7.47;;;1.90;;
22270;SDS011;11304;53.520;10.104;2023-09-30T13:06:13;10.43;;;1.88;;
22270;SDS011;11304;53.520;10.104;2023-09-30T13:08:41;8.70;;;1.90;;
22270;SDS011;11304;53.520;10.104;2023-09-30T13:11:07;10.57;;;2.08;;
22270;SDS011;11304;53.520;10.104;2023-09-30T13:13:33;13.25;;;2.20;;
22270;SDS011;11304;53.520;10.104;2023-09-30T13:16:00;7.47;;;1.80;;
22270;SDS011;11304;53.520;10.104;2023-09-30T13:18:26;8.85;;;1.95;;
22270;SDS011;11304;53.520;10.104;2023-09-30T13:20:52;11.10;;;2.30;;
22270;SDS011;11304;53.520;10.104;2023-09-30T13:23:18;8.75;;;1.92;;
22270;SDS011;11304;53.520;10.104;2023-09-30T13:25:44;14.02;;;2.00;;
22270;SDS011;11304;53.520;10.104;2023-09-30T13:28:10;9.82;;;2.40;;
22270;SDS011;11304;53.520;10.104;2023-09-30T13:30:36;10.90;;;2.17;;
22270;SDS011;11304;53.520;10.104;2023-09-30T13:33:02;12.32;;;2.28;;
22270;SDS011;11304;53.520;10.104;2023-09-30T13:35:28;9.70;;;1.70;;
22270;SDS011;11304;53.520;10.104;2023-09-30T13:37:54;10.88;;;2.10;;
22270;SDS011;11304;53.520;10.104;2023-09-30T13:40:19;7.97;;;2.03;;
22270;SDS011;11304;53.520;10.104;2023-09-30T13:42:45;11.45;;;2.38;;
22270;SDS011;11304;53.520;10.104;2023-09-30T13:45:11;7.18;;;1.80;;
22270;SDS011;11304;53.520;10.104;2023-09-30T13:47:37;8.60;;;2.15;;
22270;SDS011;11304;53.520;10.104;2023-09-30T13:50:03;10.43;;;1.75;;
22270;SDS011;11304;53.520;10.104;2023-09-30T13:52:31;9.60;;;1.98;;
22270;SDS011;11304;53.520;10.104;2023-09-30T13:54:58;6.80;;;2.05;;
22270;SDS011;11304;53.520;10.104;2023-09-30T13:57:24;8.63;;;2.25;;
22270;SDS011;11304;53.520;10.104;2023-09-30T13:59:50;9.98;;;1.83;;
22270;SDS011;11304;53.520;10.104;2023-09-30T14:02:15;10.88;;;2.40;;
22270;SDS011;11304;53.520;10.104;2023-09-30T14:04:41;11.90;;;2.40;;
22270;SDS011;11304;53.520;10.104;2023-09-30T14:07:07;8.07;;;2.03;;
22270;SDS011;11304;53.520;10.104;2023-09-30T14:09:33;10.20;;;2.03;;
22270;SDS011;11304;53.520;10.104;2023-09-30T14:11:59;8.13;;;2.13;;
22270;SDS011;11304;53.520;10.104;2023-09-30T14:14:25;9.30;;;2.13;;
22270;SDS011;11304;53.520;10.104;2023-09-30T14:16:51;11.25;;;2.38;;
22270;SDS011;11304;53.520;10.104;2023-09-30T14:19:17;9.05;;;2.08;;
22270;SDS011;11304;53.520;10.104;2023-09-30T14:21:43;9.63;;;2.05;;
22270;SDS011;11304;53.520;10.104;2023-09-30T14:24:10;7.57;;;2.05;;
22270;SDS011;11304;53.520;10.104;2023-09-30T14:26:36;7.95;;;2.05;;
22270;SDS011;11304;53.520;10.104;2023-09-30T14:29:02;9.98;;;2.13;;
22270;SDS011;11304;53.520;10.104;2023-09-30T14:31:28;11.85;;;2.03;;
22270;SDS011;11304;53.520;10.104;2023-09-30T14:33:54;8.45;;;2.00;;
22270;SDS011;11304;53.520;10.104;2023-09-30T14:36:20;10.05;;;2.40;;
22270;SDS011;11304;53.520;10.104;2023-09-30T14:38:47;11.80;;;2.38;;
22270;SDS011;11304;53.520;10.104;2023-09-30T14:41:14;10.45;;;2.40;;
22270;SDS011;11304;53.520;10.104;2023-09-30T14:43:40;7.55;;;1.95;;
22270;SDS011;11304;53.520;10.104;2023-09-30T14:46:06;11.57;;;2.20;;
22270;SDS011;11304;53.520;10.104;2023-09-30T14:48:33;9.82;;;2.42;;
22270;SDS011;11304;53.520;10.104;2023-09-30T14:51:00;6.47;;;1.70;;
22270;SDS011;11304;53.520;10.104;2023-09-30T14:55:55;9.95;;;2.40;;
22270;SDS011;11304;53.520;10.104;2023-09-30T14:58:21;8.15;;;2.00;;
22270;SDS011;11304;53.520;10.104;2023-09-30T15:00:46;8.27;;;2.13;;
22270;SDS011;11304;53.520;10.104;2023-09-30T15:03:12;7.18;;;1.88;;
22270;SDS011;11304;53.520;10.104;2023-09-30T15:05:39;9.60;;;1.92;;
22270;SDS011;11304;53.520;10.104;2023-09-30T15:08:04;8.75;;;2.00;;